createdAt,value
2023-02-02T00:01:09.708Z,72.03
2023-02-02T00:03:37.616Z,71.92
2023-02-02T00:06:04.391Z,71.26
2023-02-02T00:08:30.947Z,72.03
2023-02-02T00:10:57.468Z,71.67
2023-02-02T00:13:23.941Z,72.22
2023-02-02T00:15:50.464Z,71.53
2023-02-02T00:18:17.006Z,71.14
2023-02-02T00:20:44.753Z,72.01
2023-02-02T00:23:11.220Z,71.81
2023-02-02T00:25:37.743Z,71.72
2023-02-02T00:28:04.992Z,72.10
2023-02-02T00:30:31.569Z,71.24
2023-02-02T00:32:58.109Z,70.99
2023-02-02T00:35:24.916Z,71.02
2023-02-02T00:37:52.083Z,71.75
2023-02-02T00:40:18.659Z,71.83
2023-02-02T00:42:49.090Z,71.87
2023-02-02T00:45:15.815Z,72.03
2023-02-02T00:47:46.807Z,72.35
2023-02-02T00:50:20.636Z,72.39
2023-02-02T00:52:47.771Z,71.51
2023-02-02T00:55:14.489Z,71.89
2023-02-02T00:57:41.273Z,72.43
2023-02-02T01:00:08.777Z,73.42
2023-02-02T01:02:35.723Z,74.17
2023-02-02T01:05:02.413Z,75.26
2023-02-02T01:07:28.932Z,75.16
2023-02-02T01:09:55.443Z,76.46
2023-02-02T01:12:21.933Z,76.45
2023-02-02T01:14:48.729Z,75.86
2023-02-02T01:17:15.291Z,76.28
2023-02-02T01:19:41.957Z,76.89
2023-02-02T01:22:08.749Z,76.32
2023-02-02T01:24:35.235Z,76.27
2023-02-02T01:27:01.734Z,76.59
2023-02-02T01:29:28.247Z,75.63
2023-02-02T01:31:54.776Z,76.82
2023-02-02T01:34:21.296Z,77.10
2023-02-02T01:36:48.061Z,77.54
2023-02-02T01:39:14.529Z,79.02
2023-02-02T01:41:41.421Z,78.94
2023-02-02T01:44:46.535Z,80.35
2023-02-02T01:47:13.032Z,82.06
2023-02-02T01:49:39.619Z,95.09
2023-02-02T01:52:06.536Z,95.86
2023-02-02T01:54:53.202Z,96.16
2023-02-02T01:57:33.719Z,94.91
2023-02-02T02:00:01.765Z,90.85
2023-02-02T02:02:28.345Z,85.36
2023-02-02T02:04:54.803Z,84.26
2023-02-02T02:07:21.782Z,85.24
2023-02-02T02:09:48.628Z,84.52
2023-02-02T02:12:15.624Z,84.63
2023-02-02T02:15:02.062Z,83.60
2023-02-02T02:17:56.296Z,83.05
2023-02-02T02:21:09.353Z,84.88
2023-02-02T02:24:24.026Z,85.06
2023-02-02T02:27:19.483Z,82.76
2023-02-02T02:30:24.275Z,83.65
2023-02-02T02:32:52.773Z,82.40
2023-02-02T02:35:35.491Z,84.45
2023-02-02T02:38:11.098Z,83.60
2023-02-02T02:40:42.889Z,83.74
2023-02-02T02:43:13.066Z,85.63
2023-02-02T02:45:39.633Z,86.23
2023-02-02T02:48:06.346Z,86.65
2023-02-02T02:50:32.897Z,87.34
2023-02-02T02:53:33.906Z,88.53
2023-02-02T02:56:19.587Z,89.92
2023-02-02T02:58:55.052Z,90.81
2023-02-02T03:01:25.520Z,91.35
2023-02-02T03:04:08.630Z,91.44
2023-02-02T03:06:41.352Z,92.05
2023-02-02T03:09:19.819Z,92.20
2023-02-02T03:11:46.276Z,92.63
2023-02-02T03:14:12.805Z,92.67
2023-02-02T03:16:39.352Z,92.94
2023-02-02T03:19:06.135Z,93.39
2023-02-02T03:21:33.099Z,93.02
2023-02-02T03:23:59.781Z,93.30
2023-02-02T03:26:26.263Z,92.75
2023-02-02T03:28:52.992Z,93.13
2023-02-02T03:31:19.660Z,93.33
2023-02-02T03:33:46.136Z,93.19
2023-02-02T03:36:12.605Z,93.07
2023-02-02T03:38:39.111Z,93.45
2023-02-02T03:41:06.389Z,93.50
2023-02-02T03:43:32.846Z,93.40
2023-02-02T03:46:00.958Z,93.29
2023-02-02T03:48:27.553Z,93.01
2023-02-02T03:50:54.151Z,93.42
2023-02-02T03:53:20.778Z,93.32
2023-02-02T03:55:47.268Z,93.28
2023-02-02T03:58:13.778Z,93.08
2023-02-02T04:00:40.357Z,93.14
2023-02-02T04:03:06.883Z,93.27
2023-02-02T04:05:33.385Z,93.13
2023-02-02T04:07:59.958Z,93.55
2023-02-02T04:10:26.499Z,92.99
2023-02-02T04:12:53.079Z,93.09
2023-02-02T04:15:19.604Z,93.01
2023-02-02T04:17:46.091Z,92.98
2023-02-02T04:20:12.571Z,92.99
2023-02-02T04:22:39.057Z,93.03
2023-02-02T04:25:05.832Z,92.87
2023-02-02T04:27:33.950Z,93.26
2023-02-02T04:30:00.467Z,93.01
2023-02-02T04:32:26.964Z,92.90
2023-02-02T04:34:53.471Z,93.33
2023-02-02T04:37:19.985Z,93.39
2023-02-02T04:39:46.485Z,92.98
2023-02-02T04:42:12.981Z,93.08
2023-02-02T04:44:39.896Z,93.14
2023-02-02T04:47:06.359Z,93.11
2023-02-02T04:49:32.855Z,92.79
2023-02-02T04:51:59.484Z,92.96
2023-02-02T04:54:26.124Z,92.93
2023-02-02T04:56:52.621Z,93.08
2023-02-02T04:59:19.113Z,92.91
2023-02-02T05:01:45.624Z,92.62
2023-02-02T05:04:12.352Z,92.97
2023-02-02T05:06:38.876Z,93.20
2023-02-02T05:09:05.352Z,93.17
2023-02-02T05:11:31.923Z,92.98
2023-02-02T05:13:58.407Z,92.60
2023-02-02T05:16:27.025Z,92.46
2023-02-02T05:18:56.632Z,93.05
2023-02-02T05:21:23.425Z,92.74
2023-02-02T05:23:49.926Z,92.65
2023-02-02T05:26:23.506Z,93.31
2023-02-02T05:28:50.059Z,93.56
2023-02-02T05:31:16.585Z,93.27
2023-02-02T05:33:43.171Z,93.09
2023-02-02T05:36:09.732Z,92.88
2023-02-02T05:38:37.450Z,93.35
2023-02-02T05:41:04.139Z,93.27
2023-02-02T05:43:31.293Z,93.43
2023-02-02T05:45:57.856Z,93.33
2023-02-02T05:48:24.497Z,93.16
2023-02-02T05:51:07.184Z,93.15
2023-02-02T05:53:33.664Z,93.30
2023-02-02T05:56:00.187Z,93.43
2023-02-02T05:58:26.673Z,93.52
2023-02-02T06:00:55.011Z,93.34
2023-02-02T06:03:23.020Z,93.24
2023-02-02T06:05:49.597Z,93.52
2023-02-02T06:08:16.410Z,93.68
2023-02-02T06:10:42.965Z,93.68
2023-02-02T06:13:09.455Z,93.86
2023-02-02T06:15:36.405Z,93.80
2023-02-02T06:18:03.055Z,93.89
2023-02-02T06:20:29.688Z,93.81
2023-02-02T06:22:56.223Z,93.87
2023-02-02T06:25:23.143Z,93.94
2023-02-02T06:27:50.217Z,93.91
2023-02-02T06:30:16.802Z,94.09
2023-02-02T06:32:43.362Z,93.96
2023-02-02T06:35:09.935Z,94.11
2023-02-02T06:37:38.997Z,94.18
2023-02-02T06:40:07.226Z,94.22
2023-02-02T06:42:34.163Z,94.18
2023-02-02T06:45:00.670Z,94.27
2023-02-02T06:47:27.362Z,94.08
2023-02-02T06:49:53.872Z,93.94
2023-02-02T06:52:20.503Z,93.71
2023-02-02T06:54:46.965Z,93.90
2023-02-02T06:57:13.446Z,94.16
2023-02-02T06:59:41.628Z,93.25
2023-02-02T07:02:11.527Z,93.22
2023-02-02T07:04:38.013Z,93.61
2023-02-02T07:07:04.676Z,93.53
2023-02-02T07:09:34.369Z,93.81
2023-02-02T07:12:00.866Z,93.30
2023-02-02T07:14:27.503Z,93.32
2023-02-02T07:16:53.990Z,93.43
2023-02-02T07:19:20.562Z,93.09
2023-02-02T07:21:47.047Z,93.21
2023-02-02T07:24:13.569Z,93.70
2023-02-02T07:26:40.139Z,93.63
2023-02-02T07:29:06.813Z,93.18
2023-02-02T07:31:36.071Z,93.16
2023-02-02T07:34:03.188Z,93.30
2023-02-02T07:36:29.994Z,93.07
2023-02-02T07:38:59.645Z,93.11
2023-02-02T07:41:27.826Z,93.14
2023-02-02T07:43:54.381Z,93.20
2023-02-02T07:46:20.965Z,93.30
2023-02-02T07:48:47.489Z,92.96
2023-02-02T07:51:16.452Z,92.91
2023-02-02T07:53:44.934Z,92.70
2023-02-02T07:56:15.374Z,92.82
2023-02-02T07:58:42.046Z,93.09
2023-02-02T08:01:09.531Z,92.96
2023-02-02T08:03:36.264Z,92.92
2023-02-02T08:06:32.220Z,92.75
2023-02-02T08:08:59.287Z,92.68
2023-02-02T08:11:26.157Z,92.86
2023-02-02T08:13:54.145Z,93.13
2023-02-02T08:16:22.061Z,92.96
2023-02-02T08:18:48.686Z,92.83
2023-02-02T08:21:16.133Z,92.92
2023-02-02T08:23:42.718Z,93.27
2023-02-02T08:26:16.445Z,92.83
2023-02-02T08:28:43.740Z,92.89
2023-02-02T08:31:17.233Z,92.70
2023-02-02T08:33:43.805Z,92.94
2023-02-02T08:36:14.185Z,92.82
2023-02-02T08:38:41.498Z,92.64
2023-02-02T08:41:08.937Z,92.75
2023-02-02T08:43:35.451Z,92.41
2023-02-02T08:46:05.522Z,92.20
2023-02-02T08:48:32.520Z,92.64
2023-02-02T08:50:59.614Z,92.61
2023-02-02T08:53:26.424Z,92.34
2023-02-02T08:56:15.432Z,92.38
2023-02-02T08:58:46.160Z,92.57
2023-02-02T09:01:17.484Z,92.70
2023-02-02T09:03:44.173Z,92.63
2023-02-02T09:06:12.424Z,92.98
2023-02-02T09:08:39.151Z,92.99
2023-02-02T09:11:10.744Z,92.82
2023-02-02T09:13:37.803Z,92.86
2023-02-02T09:16:05.494Z,92.92
2023-02-02T09:18:32.096Z,92.74
2023-02-02T09:21:03.045Z,92.61
2023-02-02T09:23:31.113Z,92.63
2023-02-02T09:25:57.738Z,92.49
2023-02-02T09:28:24.599Z,92.67
2023-02-02T09:30:51.451Z,92.38
2023-02-02T09:33:17.975Z,92.72
2023-02-02T09:35:44.492Z,92.55
2023-02-02T09:38:10.976Z,92.12
2023-02-02T09:40:37.528Z,92.32
2023-02-02T09:43:28.011Z,92.29
2023-02-02T09:46:12.792Z,92.36
2023-02-02T09:49:08.220Z,92.04
2023-02-02T09:51:37.810Z,92.42
2023-02-02T09:54:26.975Z,92.57
2023-02-02T09:56:55.828Z,92.53
2023-02-02T09:59:34.204Z,92.25
2023-02-02T10:02:19.162Z,92.25
2023-02-02T10:04:49.063Z,92.39
2023-02-02T10:07:18.734Z,92.11
2023-02-02T10:09:58.218Z,92.31
2023-02-02T10:12:40.876Z,92.19
2023-02-02T10:15:23.127Z,92.36
2023-02-02T10:17:51.334Z,91.80
2023-02-02T10:20:21.046Z,92.37
2023-02-02T10:22:47.560Z,92.61
2023-02-02T10:25:14.718Z,92.53
2023-02-02T10:27:41.289Z,92.57
2023-02-02T10:30:15.865Z,92.31
2023-02-02T10:32:47.731Z,92.39
2023-02-02T10:35:48.179Z,92.70
2023-02-02T10:38:37.698Z,92.77
2023-02-02T10:41:29.181Z,92.49
2023-02-02T10:44:01.691Z,92.65
2023-02-02T10:46:32.312Z,92.74
2023-02-02T10:49:39.519Z,92.72
2023-02-02T10:52:11.999Z,92.92
2023-02-02T10:54:58.356Z,92.72
2023-02-02T10:57:39.608Z,92.96
2023-02-02T11:00:32.199Z,92.74
2023-02-02T11:03:00.317Z,92.59
2023-02-02T11:05:47.152Z,92.65
2023-02-02T11:08:21.318Z,92.33
2023-02-02T11:10:49.880Z,92.19
2023-02-02T11:13:22.893Z,91.75
2023-02-02T11:15:49.436Z,92.05
2023-02-02T11:18:29.821Z,91.75
2023-02-02T11:20:56.556Z,91.79
2023-02-02T11:23:23.075Z,91.77
2023-02-02T11:26:00.350Z,91.44
2023-02-02T11:28:30.233Z,91.29
2023-02-02T11:30:56.800Z,91.45
2023-02-02T11:33:34.671Z,91.29
2023-02-02T11:36:02.905Z,91.53
2023-02-02T11:38:29.640Z,91.55
2023-02-02T11:41:04.295Z,91.96
2023-02-02T11:43:41.914Z,92.25
2023-02-02T11:46:17.330Z,92.08
2023-02-02T11:48:50.513Z,92.07
2023-02-02T11:51:24.574Z,92.16
2023-02-02T11:53:59.193Z,92.03
2023-02-02T11:56:26.285Z,92.39
2023-02-02T11:58:58.965Z,92.17
2023-02-02T12:01:35.599Z,91.88
2023-02-02T12:04:23.630Z,92.13
2023-02-02T12:06:50.288Z,92.09
2023-02-02T12:09:22.199Z,92.27
2023-02-02T12:12:11.540Z,92.09
2023-02-02T12:14:53.006Z,91.65
2023-02-02T12:17:32.994Z,92.13
2023-02-02T12:20:02.612Z,91.89
2023-02-02T12:23:07.681Z,92.14
2023-02-02T12:25:54.438Z,91.98
2023-02-02T12:28:31.207Z,91.89
2023-02-02T12:31:10.192Z,91.80
2023-02-02T12:33:46.998Z,91.44
2023-02-02T12:36:27.819Z,92.06
2023-02-02T12:39:09.849Z,91.62
2023-02-02T12:41:54.273Z,91.74
2023-02-02T12:44:31.425Z,91.63
2023-02-02T12:47:39.892Z,91.80
2023-02-02T12:50:12.257Z,92.18
2023-02-02T12:52:48.073Z,91.71
2023-02-02T12:55:17.751Z,92.26
2023-02-02T12:58:13.569Z,92.07
2023-02-02T13:00:43.445Z,92.14
2023-02-02T13:03:31.320Z,92.05
2023-02-02T13:06:16.443Z,92.05
2023-02-02T13:08:48.060Z,91.41
2023-02-02T13:11:33.077Z,91.67
2023-02-02T13:14:11.727Z,91.99
2023-02-02T13:16:41.014Z,92.17
2023-02-02T13:19:08.415Z,91.63
2023-02-02T13:21:34.978Z,91.44
2023-02-02T13:24:05.022Z,91.57
2023-02-02T13:26:38.487Z,91.45
2023-02-02T13:29:11.035Z,91.61
2023-02-02T13:31:52.197Z,91.81
2023-02-02T13:34:31.886Z,91.68
2023-02-02T13:37:06.817Z,92.30
2023-02-02T13:39:34.785Z,91.94
2023-02-02T13:42:02.824Z,91.74
2023-02-02T13:44:32.665Z,91.85
2023-02-02T13:47:09.179Z,92.04
2023-02-02T13:49:42.860Z,92.17
2023-02-02T13:52:12.394Z,92.79
2023-02-02T13:54:53.037Z,92.56
2023-02-02T13:57:28.805Z,92.70
2023-02-02T14:00:12.052Z,92.94
2023-02-02T14:02:44.335Z,92.96
2023-02-02T14:05:27.381Z,92.89
2023-02-02T14:08:06.793Z,92.83
2023-02-02T14:10:36.031Z,92.78
2023-02-02T14:13:32.544Z,92.53
2023-02-02T14:16:00.707Z,92.39
2023-02-02T14:18:49.576Z,92.66
2023-02-02T14:21:34.049Z,92.21
2023-02-02T14:24:12.824Z,92.78
2023-02-02T14:26:45.621Z,92.48
2023-02-02T14:29:34.797Z,92.64
2023-02-02T14:32:24.186Z,92.16
2023-02-02T14:34:54.104Z,92.11
2023-02-02T14:37:23.505Z,91.48
2023-02-02T14:40:06.644Z,92.17
2023-02-02T14:42:54.799Z,91.92
2023-02-02T14:45:27.796Z,92.08
2023-02-02T14:48:06.871Z,92.22
2023-02-02T14:50:39.300Z,92.17
2023-02-02T14:53:43.199Z,92.70
2023-02-02T14:56:10.772Z,92.39
2023-02-02T14:58:49.922Z,92.58
2023-02-02T15:01:25.005Z,92.62
2023-02-02T15:03:56.080Z,92.86
2023-02-02T15:06:22.529Z,93.29
2023-02-02T15:09:19.837Z,93.04
2023-02-02T15:12:04.513Z,93.34
2023-02-02T15:14:44.889Z,93.75
2023-02-02T15:17:34.474Z,93.95
2023-02-02T15:20:05.738Z,94.10
2023-02-02T15:22:47.825Z,94.20
2023-02-02T15:25:36.298Z,94.17
2023-02-02T15:28:14.074Z,94.17
2023-02-02T15:30:42.648Z,94.22
2023-02-02T15:33:26.803Z,94.27
2023-02-02T15:35:53.649Z,94.14
2023-02-02T15:38:20.448Z,94.36
2023-02-02T15:40:47.094Z,94.19
2023-02-02T15:43:14.018Z,94.25
2023-02-02T15:45:47.868Z,94.21
2023-02-02T15:48:25.387Z,94.02
2023-02-02T15:50:55.917Z,94.23
2023-02-02T15:53:45.698Z,93.85
2023-02-02T15:56:29.409Z,93.69
2023-02-02T15:58:58.458Z,93.92
2023-02-02T16:01:25.668Z,94.02
2023-02-02T16:04:26.633Z,94.13
2023-02-02T16:06:53.375Z,94.18
2023-02-02T16:09:25.920Z,94.03
2023-02-02T16:11:52.583Z,94.19
2023-02-02T16:14:19.067Z,93.96
2023-02-02T16:16:47.563Z,94.02
2023-02-02T16:19:20.704Z,94.17
2023-02-02T16:21:47.121Z,94.07
2023-02-02T16:24:21.789Z,93.96
2023-02-02T16:26:48.489Z,94.13
2023-02-02T16:29:17.351Z,94.28
2023-02-02T16:31:47.325Z,93.99
2023-02-02T16:34:18.431Z,94.14
2023-02-02T16:36:44.922Z,94.01
2023-02-02T16:39:16.539Z,94.26
2023-02-02T16:41:44.867Z,94.59
2023-02-02T16:44:30.958Z,94.08
2023-02-02T16:46:57.634Z,94.18
2023-02-02T16:49:26.170Z,94.12
2023-02-02T16:52:19.960Z,94.18
2023-02-02T16:54:55.845Z,94.12
2023-02-02T16:57:33.115Z,94.18
2023-02-02T17:00:01.622Z,94.46
2023-02-02T17:02:39.046Z,94.17
2023-02-02T17:05:16.296Z,94.43
2023-02-02T17:07:49.988Z,94.29
2023-02-02T17:10:16.401Z,94.28
2023-02-02T17:12:43.342Z,94.52
2023-02-02T17:15:18.895Z,94.51
2023-02-02T17:17:48.715Z,94.36
2023-02-02T17:20:16.062Z,94.62
2023-02-02T17:22:45.380Z,94.59
2023-02-02T17:25:21.905Z,94.48
2023-02-02T17:27:48.469Z,94.47
2023-02-02T17:30:18.510Z,94.49
2023-02-02T17:32:44.987Z,94.52
2023-02-02T17:35:25.972Z,94.46
2023-02-02T17:37:53.528Z,94.26
2023-02-02T17:40:21.497Z,94.24
2023-02-02T17:42:51.809Z,94.24
2023-02-02T17:45:28.301Z,94.32
2023-02-02T17:47:54.928Z,94.21
2023-02-02T17:50:24.568Z,94.01
2023-02-02T17:52:51.315Z,93.94
2023-02-02T17:55:32.365Z,93.93
2023-02-02T17:57:58.876Z,93.97
2023-02-02T18:00:26.719Z,93.98
2023-02-02T18:02:57.236Z,94.03
2023-02-02T18:05:24.196Z,94.05
2023-02-02T18:07:50.869Z,94.18
2023-02-02T18:10:19.334Z,94.63
2023-02-02T18:12:45.859Z,94.29
2023-02-02T18:15:13.122Z,94.34
2023-02-02T18:17:39.852Z,94.61
2023-02-02T18:20:06.802Z,94.36
2023-02-02T18:22:33.343Z,94.82
2023-02-02T18:25:00.059Z,94.49
2023-02-02T18:27:29.182Z,94.48
2023-02-02T18:29:55.899Z,94.26
2023-02-02T18:32:22.415Z,94.33
2023-02-02T18:34:51.332Z,94.27
2023-02-02T18:37:18.196Z,94.38
2023-02-02T18:39:45.346Z,94.35
2023-02-02T18:42:11.929Z,94.35
2023-02-02T18:44:38.620Z,94.53
2023-02-02T18:47:06.132Z,94.51
2023-02-02T18:49:32.643Z,94.26
2023-02-02T18:51:59.109Z,94.31
2023-02-02T18:54:25.777Z,94.44
2023-02-02T18:56:52.264Z,94.33
2023-02-02T18:59:18.789Z,94.26
2023-02-02T19:01:45.386Z,94.54
2023-02-02T19:04:11.984Z,94.39
2023-02-02T19:06:56.868Z,94.40
2023-02-02T19:09:24.734Z,94.41
2023-02-02T19:11:51.619Z,94.25
2023-02-02T19:14:26.597Z,94.50
2023-02-02T19:16:59.348Z,94.38
2023-02-02T19:19:33.434Z,94.37
2023-02-02T19:22:01.534Z,94.46
2023-02-02T19:24:33.259Z,94.22
2023-02-02T19:26:59.753Z,94.47
2023-02-02T19:29:28.759Z,94.46
2023-02-02T19:32:23.084Z,94.53
2023-02-02T19:34:51.659Z,94.56
2023-02-02T19:37:25.979Z,94.43
2023-02-02T19:40:08.315Z,94.49
2023-02-02T19:42:35.498Z,94.60
2023-02-02T19:45:09.186Z,94.49
2023-02-02T19:47:35.687Z,94.67
2023-02-02T19:50:15.726Z,94.70
2023-02-02T19:52:42.215Z,94.71
2023-02-02T19:55:28.366Z,94.69
2023-02-02T19:58:02.137Z,94.67
2023-02-02T20:00:30.148Z,94.73
2023-02-02T20:03:07.401Z,94.59
2023-02-02T20:05:41.399Z,94.52
2023-02-02T20:08:13.908Z,94.67
2023-02-02T20:10:44.457Z,94.37
2023-02-02T20:13:21.244Z,94.85
2023-02-02T20:15:48.909Z,94.35
2023-02-02T20:18:23.367Z,94.28
2023-02-02T20:20:54.426Z,94.54
2023-02-02T20:23:42.947Z,94.41
2023-02-02T20:26:33.410Z,94.51
2023-02-02T20:29:01.091Z,94.70
2023-02-02T20:31:35.698Z,94.68
2023-02-02T20:34:02.421Z,94.62
2023-02-02T20:36:38.716Z,94.34
2023-02-02T20:39:34.450Z,94.04
2023-02-02T20:42:01.060Z,94.38
2023-02-02T20:44:28.203Z,94.44
2023-02-02T20:46:54.984Z,94.07
2023-02-02T20:49:25.346Z,93.98
2023-02-02T20:51:53.575Z,93.98
2023-02-02T20:54:20.903Z,94.20
2023-02-02T20:56:47.544Z,94.13
2023-02-02T20:59:14.523Z,94.39
2023-02-02T21:01:41.188Z,94.30
2023-02-02T21:04:07.778Z,94.22
2023-02-02T21:06:35.151Z,94.28
2023-02-02T21:09:01.686Z,94.84
2023-02-02T21:11:28.190Z,94.34
2023-02-02T21:13:55.212Z,94.55
2023-02-02T21:16:22.290Z,94.51
2023-02-02T21:18:48.848Z,94.51
2023-02-02T21:21:16.883Z,94.59
2023-02-02T21:23:47.386Z,94.70
2023-02-02T21:26:14.693Z,94.58
2023-02-02T21:28:41.231Z,94.24
2023-02-02T21:31:08.728Z,94.35
2023-02-02T21:33:35.312Z,94.54
2023-02-02T21:36:08.823Z,94.33
2023-02-02T21:38:35.299Z,94.51
2023-02-02T21:41:01.872Z,94.48
2023-02-02T21:43:28.431Z,94.44
2023-02-02T21:45:57.130Z,94.65
2023-02-02T21:48:27.848Z,94.46
2023-02-02T21:50:54.394Z,94.46
2023-02-02T21:53:22.695Z,94.65
2023-02-02T21:55:54.266Z,94.62
2023-02-02T21:58:34.058Z,94.70
2023-02-02T22:01:18.491Z,94.81
2023-02-02T22:03:46.759Z,94.77
2023-02-02T22:06:24.548Z,94.75
2023-02-02T22:08:51.194Z,94.80
2023-02-02T22:11:47.850Z,94.76
2023-02-02T22:14:17.466Z,94.59
2023-02-02T22:17:02.430Z,95.01
2023-02-02T22:19:33.972Z,94.81
2023-02-02T22:22:09.484Z,94.80
2023-02-02T22:24:36.276Z,94.82
2023-02-02T22:27:02.827Z,94.79
2023-02-02T22:29:29.722Z,94.85
2023-02-02T22:31:56.246Z,94.87
2023-02-02T22:34:22.843Z,95.14
2023-02-02T22:36:49.373Z,95.15
2023-02-02T22:39:16.088Z,95.16
2023-02-02T22:41:42.683Z,95.00
2023-02-02T22:44:09.286Z,95.18
2023-02-02T22:46:35.798Z,95.17
2023-02-02T22:49:02.299Z,95.24
2023-02-02T22:51:28.845Z,95.10
2023-02-02T22:53:55.349Z,95.19
2023-02-02T22:56:21.857Z,95.25
2023-02-02T22:58:48.791Z,95.33
2023-02-02T23:01:15.452Z,95.17
2023-02-02T23:03:42.043Z,95.17
2023-02-02T23:06:09.074Z,95.21
2023-02-02T23:08:35.589Z,95.29
2023-02-02T23:11:02.078Z,95.06
2023-02-02T23:13:28.597Z,95.27
2023-02-02T23:15:56.690Z,95.03
2023-02-02T23:18:23.239Z,95.34
2023-02-02T23:20:50.505Z,95.41
2023-02-02T23:23:16.968Z,95.03
2023-02-02T23:25:43.430Z,95.31
2023-02-02T23:28:10.524Z,95.19
2023-02-02T23:30:37.888Z,95.33
2023-02-02T23:33:04.388Z,95.06
2023-02-02T23:35:30.905Z,94.96
2023-02-02T23:37:57.394Z,95.30
2023-02-02T23:40:24.112Z,95.30
2023-02-02T23:42:51.063Z,95.14
2023-02-02T23:45:17.621Z,95.25
2023-02-02T23:47:44.185Z,95.01
2023-02-02T23:50:11.310Z,95.21
2023-02-02T23:52:37.850Z,94.79
2023-02-02T23:55:04.761Z,95.04
2023-02-02T23:57:33.690Z,95.18
